Time;durP1;ratioP1;P1;durP2;ratioP2;P2;SDS_P1;SDS_P2;PMS_P1;PMS_P2;Temp;Humidity;BMP_temperature;BMP_pressure;BME280_temperature;BME280_humidity;BME280_pressure;Samples;Min_cycle;Max_cycle;Signal;HPM_P1;HPM_P2
2023/06/20 00:00:10;;;;;;;16.42;14.73;;;;;;;;;;5010436;28;20026;-78
2023/06/20 00:02:36;;;;;;;17.80;15.35;;;;;;;;;;5026672;28;20026;-78
2023/06/20 00:05:03;;;;;;;15.48;13.73;;;;;;;;;;5016592;28;20053;-78
2023/06/20 00:07:29;;;;;;;14.48;13.05;;;;;;;;;;5015680;28;20072;-79
2023/06/20 00:09:55;;;;;;;16.13;14.45;;;;;;;;;;4999276;28;20028;-79
2023/06/20 00:12:21;;;;;;;15.15;13.45;;;;;;;;;;4998926;28;20033;-79
2023/06/20 00:14:47;;;;;;;15.40;13.52;;;;;;;;;;5017510;28;20022;-79
2023/06/20 00:17:13;;;;;;;15.65;13.65;;;;;;;;;;5016887;28;20476;-78
2023/06/20 00:19:40;;;;;;;16.33;14.52;;;;;;;;;;5017904;28;20033;-78
2023/06/20 00:22:06;;;;;;;18.40;13.85;;;;;;;;;;5016102;28;20056;-78
2023/06/20 00:24:35;;;;;;;16.77;13.77;;;;;;;;;;5017094;28;20468;-78
2023/06/20 00:27:01;;;;;;;14.82;13.35;;;;;;;;;;4998540;28;20072;-78
2023/06/20 00:29:27;;;;;;;13.82;12.52;;;;;;;;;;5014685;28;20034;-78
2023/06/20 00:31:53;;;;;;;15.32;13.82;;;;;;;;;;5015147;28;20040;-78
2023/06/20 00:34:19;;;;;;;16.05;13.75;;;;;;;;;;4997887;28;20038;-78
2023/06/20 00:36:45;;;;;;;13.70;12.40;;;;;;;;;;5015745;28;20164;-78
2023/06/20 00:39:11;;;;;;;15.32;13.15;;;;;;;;;;5015460;28;20172;-78
2023/06/20 00:41:38;;;;;;;14.35;12.85;;;;;;;;;;5023885;28;20046;-78
2023/06/20 00:44:05;;;;;;;14.93;13.30;;;;;;;;;;5023029;28;20026;-78
2023/06/20 00:46:49;;;;;;;14.70;13.30;;;;;;;;;;5014985;28;20029;-78
2023/06/20 00:49:15;;;;;;;17.25;13.50;;;;;;;;;;5014791;28;20104;-77
2023/06/20 00:51:41;;;;;;;16.50;14.80;;;;;;;;;;5014840;28;20029;-77
2023/06/20 00:54:07;;;;;;;15.95;13.95;;;;;;;;;;5014223;28;20022;-77
2023/06/20 00:56:33;;;;;;;15.68;14.15;;;;;;;;;;5014394;28;20037;-78
2023/06/20 00:58:59;;;;;;;15.95;14.35;;;;;;;;;;5014195;28;20030;-77
2023/06/20 01:01:31;;;;;;;16.67;14.95;;;;;;;;;;5014546;28;20034;-77
2023/06/20 01:03:57;;;;;;;15.85;14.25;;;;;;;;;;5014328;28;20104;-77
2023/06/20 01:06:27;;;;;;;18.27;14.80;;;;;;;;;;4996704;28;20064;-77
2023/06/20 01:09:05;;;;;;;15.98;14.38;;;;;;;;;;5014076;28;20037;-78
2023/06/20 01:11:31;;;;;;;18.15;15.10;;;;;;;;;;5014599;28;20381;-77
2023/06/20 01:14:15;;;;;;;18.90;15.02;;;;;;;;;;5014322;28;20096;-78
2023/06/20 01:16:54;;;;;;;15.52;13.90;;;;;;;;;;5014376;28;20501;-78
2023/06/20 01:19:20;;;;;;;18.05;15.00;;;;;;;;;;4997577;28;20404;-78
2023/06/20 01:21:49;;;;;;;16.25;14.65;;;;;;;;;;5018014;28;20030;-78
2023/06/20 01:24:21;;;;;;;16.33;14.60;;;;;;;;;;5015927;28;20030;-77
2023/06/20 01:26:55;;;;;;;16.38;14.70;;;;;;;;;;5018002;28;20055;-78
2023/06/20 01:29:32;;;;;;;16.17;14.48;;;;;;;;;;5001897;28;20033;-77
2023/06/20 01:32:01;;;;;;;15.05;13.55;;;;;;;;;;5020705;28;20033;-78
2023/06/20 01:34:29;;;;;;;16.17;14.13;;;;;;;;;;5022605;28;20104;-77
2023/06/20 01:36:57;;;;;;;17.33;15.20;;;;;;;;;;5024917;28;20017;-78
2023/06/20 01:39:24;;;;;;;15.65;13.88;;;;;;;;;;5007333;28;20061;-78
2023/06/20 01:41:51;;;;;;;16.52;14.65;;;;;;;;;;5026293;28;20049;-78
2023/06/20 01:44:18;;;;;;;16.92;14.25;;;;;;;;;;5026179;28;20034;-78
2023/06/20 01:46:46;;;;;;;16.30;14.50;;;;;;;;;;5022574;28;20049;-77
2023/06/20 01:49:12;;;;;;;15.43;14.00;;;;;;;;;;5018136;28;20651;-78
2023/06/20 01:51:39;;;;;;;15.88;14.23;;;;;;;;;;5018282;28;20392;-77
2023/06/20 01:54:05;;;;;;;14.50;13.10;;;;;;;;;;5021671;28;20022;-78
2023/06/20 01:56:32;;;;;;;16.13;14.48;;;;;;;;;;5029593;28;20030;-78
2023/06/20 01:59:00;;;;;;;16.08;14.48;;;;;;;;;;5022562;28;20022;-77
2023/06/20 02:01:26;;;;;;;15.32;13.75;;;;;;;;;;4999486;28;20028;-77
2023/06/20 02:03:54;;;;;;;17.38;15.65;;;;;;;;;;5017197;28;20026;-77
2023/06/20 02:06:22;;;;;;;16.13;14.52;;;;;;;;;;5015405;28;20431;-78
2023/06/20 02:08:49;;;;;;;19.30;14.65;;;;;;;;;;5016063;28;20022;-78
2023/06/20 02:11:15;;;;;;;14.82;13.30;;;;;;;;;;5016519;28;20026;-79
2023/06/20 02:13:42;;;;;;;17.45;14.45;;;;;;;;;;5016530;28;20032;-78
2023/06/20 02:16:10;;;;;;;15.57;13.85;;;;;;;;;;5016586;28;20022;-78
2023/06/20 02:18:36;;;;;;;16.48;14.68;;;;;;;;;;5016269;28;20408;-78
2023/06/20 02:21:04;;;;;;;15.80;14.18;;;;;;;;;;4998588;28;20030;-78
2023/06/20 02:23:32;;;;;;;17.30;15.15;;;;;;;;;;5015776;28;20109;-78
2023/06/20 02:26:02;;;;;;;15.52;13.95;;;;;;;;;;5016093;28;20122;-78
2023/06/20 02:28:29;;;;;;;16.23;14.52;;;;;;;;;;5015632;28;20041;-78
2023/06/20 02:30:56;;;;;;;14.98;13.45;;;;;;;;;;5015731;28;20030;-78
2023/06/20 02:33:22;;;;;;;16.45;14.18;;;;;;;;;;5015323;28;20018;-78
2023/06/20 02:35:50;;;;;;;14.77;13.38;;;;;;;;;;5015190;28;20030;-78
2023/06/20 02:38:17;;;;;;;16.42;14.73;;;;;;;;;;4997009;28;20026;-77
2023/06/20 02:40:43;;;;;;;14.95;13.45;;;;;;;;;;5015265;28;20096;-77
2023/06/20 02:43:09;;;;;;;17.13;15.40;;;;;;;;;;5014823;28;20469;-77
2023/06/20 02:45:36;;;;;;;17.42;15.25;;;;;;;;;;4997273;28;20022;-77
2023/06/20 02:48:20;;;;;;;16.27;14.63;;;;;;;;;;5014517;28;20029;-77
2023/06/20 02:50:49;;;;;;;16.10;14.50;;;;;;;;;;5014674;28;20076;-77
2023/06/20 02:53:21;;;;;;;17.52;15.73;;;;;;;;;;5014603;28;20026;-77
2023/06/20 02:55:53;;;;;;;15.77;14.18;;;;;;;;;;5014700;28;20112;-77
2023/06/20 02:58:19;;;;;;;;;;;;;;;;;;5015225;28;20026;-77
2023/06/20 03:00:46;;;;;;;15.45;13.95;;;;;;;;;;5000462;28;19927;-77
2023/06/20 03:03:14;;;;;;;17.00;14.85;;;;;;;;;;5016150;28;20049;-77
2023/06/20 03:05:44;;;;;;;15.50;13.95;;;;;;;;;;5015786;28;20120;-78
2023/06/20 03:08:13;;;;;;;16.10;14.43;;;;;;;;;;5015624;28;20022;-78
2023/06/20 03:10:40;;;;;;;15.32;13.75;;;;;;;;;;5016358;28;20496;-77
2023/06/20 03:13:06;;;;;;;14.63;13.18;;;;;;;;;;5015067;28;20527;-76
2023/06/20 03:15:32;;;;;;;15.43;12.68;;;;;;;;;;5014209;28;20504;-76
2023/06/20 03:18:01;;;;;;;15.63;14.02;;;;;;;;;;5013889;28;20034;-76
2023/06/20 03:20:28;;;;;;;16.23;13.98;;;;;;;;;;5014121;28;20050;-76
2023/06/20 03:22:55;;;;;;;14.38;12.98;;;;;;;;;;5014102;28;20026;-76
2023/06/20 03:25:21;;;;;;;14.98;13.30;;;;;;;;;;5013985;28;20022;-76
2023/06/20 03:27:47;;;;;;;13.30;12.00;;;;;;;;;;4995292;28;20037;-76
2023/06/20 03:30:14;;;;;;;15.48;13.70;;;;;;;;;;5012902;28;20079;-76
2023/06/20 03:32:40;;;;;;;15.40;13.48;;;;;;;;;;5012868;28;20157;-76
2023/06/20 03:35:06;;;;;;;14.60;13.10;;;;;;;;;;5012857;28;20053;-76
2023/06/20 03:37:33;;;;;;;13.43;12.02;;;;;;;;;;5012906;28;20030;-77
2023/06/20 03:39:59;;;;;;;13.25;11.60;;;;;;;;;;4995216;28;20025;-78
2023/06/20 03:42:25;;;;;;;13.35;11.80;;;;;;;;;;4995717;28;20391;-77
2023/06/20 03:44:51;;;;;;;13.88;12.05;;;;;;;;;;5012946;28;20072;-77
2023/06/20 03:47:17;;;;;;;18.92;12.48;;;;;;;;;;5013854;28;20057;-77
2023/06/20 03:49:43;;;;;;;13.27;11.40;;;;;;;;;;5013599;28;20121;-78
2023/06/20 03:52:09;;;;;;;12.23;10.95;;;;;;;;;;5012884;28;20547;-77
2023/06/20 03:54:37;;;;;;;14.20;11.23;;;;;;;;;;5012878;28;20036;-76
2023/06/20 03:57:03;;;;;;;14.75;10.77;;;;;;;;;;5011943;28;20492;-76
2023/06/20 03:59:29;;;;;;;11.82;10.63;;;;;;;;;;4997598;28;20120;-76
2023/06/20 04:01:55;;;;;;;11.90;10.10;;;;;;;;;;5016402;28;20056;-76
2023/06/20 04:04:22;;;;;;;12.27;9.77;;;;;;;;;;5017247;28;20079;-76
2023/06/20 04:06:49;;;;;;;11.73;10.32;;;;;;;;;;5014289;28;20049;-77
2023/06/20 04:09:16;;;;;;;14.40;10.75;;;;;;;;;;5012472;28;20026;-77
2023/06/20 04:11:42;;;;;;;10.68;9.57;;;;;;;;;;5012166;28;20088;-77
2023/06/20 04:14:08;;;;;;;11.07;9.40;;;;;;;;;;5011944;28;20026;-76
2023/06/20 04:16:34;;;;;;;15.55;10.32;;;;;;;;;;5012171;28;20026;-77
2023/06/20 04:19:00;;;;;;;15.15;10.43;;;;;;;;;;5012020;28;20022;-77
2023/06/20 04:21:26;;;;;;;11.82;9.82;;;;;;;;;;5012039;28;20026;-77
2023/06/20 04:23:52;;;;;;;10.80;9.38;;;;;;;;;;5012189;28;20022;-77
2023/06/20 04:26:18;;;;;;;12.27;9.93;;;;;;;;;;4941511;28;1547980;-77
2023/06/20 04:28:44;;;;;;;11.65;9.07;;;;;;;;;;5013829;28;20120;-76
2023/06/20 04:31:11;;;;;;;9.65;8.65;;;;;;;;;;5014874;28;20034;-77
2023/06/20 04:33:43;;;;;;;11.73;9.55;;;;;;;;;;5016307;28;20022;-78
2023/06/20 04:36:12;;;;;;;12.40;9.80;;;;;;;;;;5017428;28;20101;-77
2023/06/20 04:38:39;;;;;;;9.98;8.98;;;;;;;;;;4997615;28;20366;-77
2023/06/20 04:41:05;;;;;;;10.48;9.27;;;;;;;;;;5013276;28;20026;-77
2023/06/20 04:43:31;;;;;;;11.57;8.57;;;;;;;;;;5012748;28;20543;-77
2023/06/20 04:45:57;;;;;;;10.82;8.07;;;;;;;;;;5012371;28;20025;-77
2023/06/20 04:48:27;;;;;;;9.68;8.27;;;;;;;;;;5013966;28;20026;-78
2023/06/20 04:50:55;;;;;;;11.33;8.80;;;;;;;;;;4995245;28;20045;-77
2023/06/20 04:53:22;;;;;;;11.02;8.52;;;;;;;;;;5012480;28;20022;-77
2023/06/20 04:55:48;;;;;;;8.90;7.93;;;;;;;;;;5013292;28;20030;-77
2023/06/20 04:58:14;;;;;;;10.63;7.72;;;;;;;;;;5012593;28;20411;-78
2023/06/20 05:00:43;;;;;;;11.10;8.30;;;;;;;;;;5014244;28;20026;-77
2023/06/20 05:03:09;;;;;;;11.68;7.88;;;;;;;;;;5007158;28;20034;-79
2023/06/20 05:05:35;;;;;;;14.23;8.75;;;;;;;;;;5015721;28;20504;-79
2023/06/20 05:08:03;;;;;;;11.20;8.00;;;;;;;;;;5014981;28;20033;-79
2023/06/20 05:10:32;;;;;;;12.13;7.85;;;;;;;;;;5014386;28;20473;-78
2023/06/20 05:12:58;;;;;;;10.07;7.70;;;;;;;;;;5020695;28;20105;-79
2023/06/20 05:15:25;;;;;;;10.90;7.38;;;;;;;;;;5029322;28;20241;-79
2023/06/20 05:17:53;;;;;;;10.82;7.30;;;;;;;;;;5021710;28;20026;-78
2023/06/20 05:20:20;;;;;;;8.63;7.72;;;;;;;;;;5014792;28;20164;-78
2023/06/20 05:22:46;;;;;;;12.15;8.50;;;;;;;;;;5033371;28;20471;-78
2023/06/20 05:25:12;;;;;;;9.27;8.00;;;;;;;;;;5034574;28;20021;-79
2023/06/20 05:27:38;;;;;;;13.00;8.45;;;;;;;;;;5011582;28;20041;-77
2023/06/20 05:30:05;;;;;;;16.70;8.18;;;;;;;;;;5011962;28;20058;-77
2023/06/20 05:32:31;;;;;;;13.32;8.90;;;;;;;;;;5011849;28;20158;-77
2023/06/20 05:35:00;;;;;;;14.80;10.02;;;;;;;;;;5012286;28;20116;-77
2023/06/20 05:37:28;;;;;;;12.02;9.40;;;;;;;;;;4996015;28;20022;-76
2023/06/20 05:39:55;;;;;;;11.80;9.13;;;;;;;;;;5011857;28;20014;-76
2023/06/20 05:42:24;;;;;;;11.48;9.70;;;;;;;;;;5012192;28;20029;-76
2023/06/20 05:44:50;;;;;;;12.77;10.27;;;;;;;;;;5012010;28;20021;-77
2023/06/20 05:47:18;;;;;;;12.70;9.25;;;;;;;;;;5012433;28;20109;-77
2023/06/20 05:49:45;;;;;;;13.35;9.23;;;;;;;;;;5014148;28;20050;-78
2023/06/20 05:52:11;;;;;;;13.57;10.55;;;;;;;;;;5012536;28;20072;-77
2023/06/20 05:54:37;;;;;;;12.40;10.25;;;;;;;;;;4994800;28;20037;-78
2023/06/20 05:57:05;;;;;;;12.45;9.65;;;;;;;;;;4995164;28;20113;-77
2023/06/20 05:59:31;;;;;;;11.25;9.70;;;;;;;;;;5012071;28;20029;-78
2023/06/20 06:01:57;;;;;;;13.75;11.32;;;;;;;;;;5011809;28;20026;-77
2023/06/20 06:04:25;;;;;;;15.65;9.68;;;;;;;;;;5011198;28;20029;-77
2023/06/20 06:06:51;;;;;;;17.42;10.38;;;;;;;;;;5010980;28;20022;-78
2023/06/20 06:09:17;;;;;;;12.82;9.93;;;;;;;;;;5022443;28;20029;-77
2023/06/20 06:11:45;;;;;;;12.80;10.50;;;;;;;;;;5022845;28;20025;-77
2023/06/20 06:14:11;;;;;;;14.15;9.73;;;;;;;;;;5031147;28;20031;-79
2023/06/20 06:16:37;;;;;;;15.73;10.27;;;;;;;;;;5030938;28;20026;-78
2023/06/20 06:19:04;;;;;;;12.82;10.30;;;;;;;;;;5014734;28;20022;-78
2023/06/20 06:21:30;;;;;;;14.40;10.90;;;;;;;;;;5033735;28;20427;-78
2023/06/20 06:23:56;;;;;;;15.82;10.85;;;;;;;;;;5000911;28;20022;-77
2023/06/20 06:26:22;;;;;;;13.55;9.98;;;;;;;;;;5019039;28;20443;-77
2023/06/20 06:28:48;;;;;;;11.60;10.40;;;;;;;;;;5030440;28;20057;-77
2023/06/20 06:31:15;;;;;;;16.60;10.70;;;;;;;;;;5025314;28;20059;-78
2023/06/20 06:33:42;;;;;;;15.73;11.07;;;;;;;;;;5031999;28;20029;-78
2023/06/20 06:36:09;;;;;;;15.25;11.18;;;;;;;;;;5032828;28;20025;-77
2023/06/20 06:38:35;;;;;;;12.93;10.77;;;;;;;;;;5028934;28;20073;-78
2023/06/20 06:41:02;;;;;;;15.52;11.07;;;;;;;;;;5014583;28;20054;-77
2023/06/20 06:43:28;;;;;;;12.02;10.40;;;;;;;;;;5006520;28;20391;-77
2023/06/20 06:45:54;;;;;;;15.77;11.25;;;;;;;;;;5034112;28;20437;-77
2023/06/20 06:48:20;;;;;;;18.98;11.40;;;;;;;;;;5034273;28;20112;-78
2023/06/20 06:50:46;;;;;;;15.27;10.70;;;;;;;;;;5025730;28;20056;-77
2023/06/20 06:53:12;;;;;;;13.43;10.77;;;;;;;;;;5010576;28;20022;-78
2023/06/20 06:55:38;;;;;;;12.60;10.40;;;;;;;;;;5014698;28;20021;-78
2023/06/20 06:58:04;;;;;;;14.63;10.32;;;;;;;;;;5015035;28;20033;-78
2023/06/20 07:00:31;;;;;;;13.23;10.38;;;;;;;;;;5017033;28;20155;-79
2023/06/20 07:02:57;;;;;;;17.13;10.02;;;;;;;;;;5017544;28;20087;-79
2023/06/20 07:05:23;;;;;;;14.60;11.25;;;;;;;;;;5018051;28;20116;-77
2023/06/20 07:07:49;;;;;;;14.00;10.63;;;;;;;;;;5014658;28;20026;-77
2023/06/20 07:10:15;;;;;;;13.68;10.85;;;;;;;;;;5014612;28;20033;-77
2023/06/20 07:12:41;;;;;;;16.40;10.43;;;;;;;;;;5014346;28;20022;-76
2023/06/20 07:15:07;;;;;;;18.65;10.75;;;;;;;;;;5012749;28;20032;-77
2023/06/20 07:17:33;;;;;;;16.38;11.38;;;;;;;;;;5011554;28;20429;-76
2023/06/20 07:19:59;;;;;;;12.13;9.80;;;;;;;;;;5011889;28;20519;-76
2023/06/20 07:22:26;;;;;;;13.43;10.85;;;;;;;;;;5011916;28;20036;-76
2023/06/20 07:24:52;;;;;;;17.02;10.48;;;;;;;;;;5011817;28;20022;-76
2023/06/20 07:27:18;;;;;;;12.73;10.48;;;;;;;;;;5010268;28;20039;-76
2023/06/20 07:29:44;;;;;;;14.90;10.90;;;;;;;;;;5011255;28;20029;-77
2023/06/20 07:32:09;;;;;;;16.23;10.38;;;;;;;;;;5012815;28;20499;-77
2023/06/20 07:34:36;;;;;;;15.38;11.00;;;;;;;;;;4994786;28;20072;-77
2023/06/20 07:37:02;;;;;;;12.63;11.18;;;;;;;;;;5011404;28;20388;-77
2023/06/20 07:39:28;;;;;;;13.45;10.60;;;;;;;;;;5011644;28;20018;-77
2023/06/20 07:41:54;;;;;;;13.07;10.27;;;;;;;;;;5011580;28;20439;-77
2023/06/20 07:44:20;;;;;;;12.68;10.38;;;;;;;;;;5011566;28;20552;-77
2023/06/20 07:46:46;;;;;;;13.52;10.57;;;;;;;;;;4993831;28;20034;-77
2023/06/20 07:49:12;;;;;;;17.60;11.38;;;;;;;;;;4993875;28;20064;-77
2023/06/20 07:51:40;;;;;;;13.40;10.68;;;;;;;;;;5012927;28;20137;-77
2023/06/20 07:54:06;;;;;;;12.40;10.48;;;;;;;;;;5013226;28;20383;-77
2023/06/20 07:56:33;;;;;;;17.88;11.52;;;;;;;;;;5013092;28;20026;-77
2023/06/20 07:58:59;;;;;;;14.75;10.80;;;;;;;;;;5048062;23;20126;-72
2023/06/20 08:01:25;;;;;;;14.10;10.75;;;;;;;;;;5052456;28;20032;-72
2023/06/20 08:03:51;;;;;;;12.60;10.75;;;;;;;;;;5052424;28;20071;-72
2023/06/20 08:06:17;;;;;;;12.68;10.88;;;;;;;;;;5052606;28;20027;-72
2023/06/20 08:08:43;;;;;;;15.48;11.13;;;;;;;;;;5052341;28;20033;-72
2023/06/20 08:11:09;;;;;;;12.40;10.05;;;;;;;;;;5052224;28;20410;-72
2023/06/20 08:13:35;;;;;;;13.45;10.48;;;;;;;;;;5052874;28;20021;-72
2023/06/20 08:16:01;;;;;;;14.23;9.52;;;;;;;;;;5052775;28;20017;-72
2023/06/20 08:18:27;;;;;;;16.25;9.88;;;;;;;;;;5052200;28;20430;-72
2023/06/20 08:20:53;;;;;;;13.02;9.57;;;;;;;;;;5052268;28;20564;-73
2023/06/20 08:23:26;;;;;;;10.90;9.65;;;;;;;;;;5052300;28;20025;-72
2023/06/20 08:25:55;;;;;;;10.35;9.25;;;;;;;;;;5050794;28;20021;-71
2023/06/20 08:28:24;;;;;;;10.93;9.05;;;;;;;;;;5051928;28;20021;-73
2023/06/20 08:30:50;;;;;;;12.13;10.02;;;;;;;;;;5051640;28;20032;-71
2023/06/20 08:33:17;;;;;;;17.95;10.13;;;;;;;;;;5053183;28;20027;-72
2023/06/20 08:35:43;;;;;;;13.30;9.15;;;;;;;;;;5052721;28;20067;-74
2023/06/20 08:38:09;;;;;;;11.77;9.88;;;;;;;;;;5050278;28;20029;-73
2023/06/20 08:40:36;;;;;;;15.48;9.93;;;;;;;;;;5050770;28;20101;-72
2023/06/20 08:43:02;;;;;;;14.73;9.60;;;;;;;;;;5050893;28;20056;-73
2023/06/20 08:45:28;;;;;;;16.35;10.32;;;;;;;;;;5033333;28;20082;-73
2023/06/20 08:47:58;;;;;;;10.60;9.50;;;;;;;;;;5050823;28;20029;-73
2023/06/20 08:50:24;;;;;;;13.18;9.30;;;;;;;;;;5051623;28;20115;-73
2023/06/20 08:52:53;;;;;;;10.82;9.40;;;;;;;;;;5051743;28;20021;-74
2023/06/20 08:55:20;;;;;;;12.32;9.70;;;;;;;;;;5050427;28;20059;-73
2023/06/20 08:57:47;;;;;;;18.20;10.20;;;;;;;;;;5050723;28;20074;-69
2023/06/20 09:00:17;;;;;;;15.13;9.27;;;;;;;;;;5051656;28;20060;-69
2023/06/20 09:02:43;;;;;;;11.95;8.80;;;;;;;;;;5051145;28;20040;-73
2023/06/20 09:05:09;;;;;;;11.98;9.63;;;;;;;;;;5051704;28;20518;-72
2023/06/20 09:07:36;;;;;;;13.38;9.52;;;;;;;;;;5051238;28;20025;-72
2023/06/20 09:10:02;;;;;;;12.57;9.70;;;;;;;;;;5050138;28;20445;-73
2023/06/20 09:12:28;;;;;;;11.35;8.93;;;;;;;;;;5050213;28;20029;-73
2023/06/20 09:14:54;;;;;;;15.52;9.63;;;;;;;;;;5051510;28;20025;-73
2023/06/20 09:17:20;;;;;;;12.38;9.20;;;;;;;;;;5049981;28;20021;-73
2023/06/20 09:19:47;;;;;;;11.13;9.48;;;;;;;;;;5051369;28;20024;-73
2023/06/20 09:22:17;;;;;;;13.35;9.05;;;;;;;;;;5051384;28;20025;-73
2023/06/20 09:24:44;;;;;;;12.95;8.38;;;;;;;;;;5051487;28;20032;-73
2023/06/20 09:27:10;;;;;;;8.23;7.40;;;;;;;;;;5050856;28;20028;-73
2023/06/20 09:29:52;;;;;;;8.98;7.18;;;;;;;;;;5051752;28;20041;-73
2023/06/20 09:32:20;;;;;;;8.25;6.38;;;;;;;;;;5071262;28;20448;-73
2023/06/20 09:34:46;;;;;;;7.93;5.80;;;;;;;;;;5052865;28;20028;-73
2023/06/20 09:37:15;;;;;;;14.52;6.97;;;;;;;;;;5051448;28;20027;-74
2023/06/20 09:39:41;;;;;;;11.65;6.18;;;;;;;;;;5051090;28;20426;-73
2023/06/20 09:42:11;;;;;;;7.50;6.40;;;;;;;;;;5049713;28;20025;-74
2023/06/20 09:44:37;;;;;;;7.75;6.32;;;;;;;;;;5049356;28;20104;-73
2023/06/20 09:47:03;;;;;;;6.88;6.18;;;;;;;;;;5050594;28;20551;-72
2023/06/20 09:49:31;;;;;;;6.65;5.95;;;;;;;;;;5050940;28;20449;-74
2023/06/20 09:52:03;;;;;;;9.93;6.60;;;;;;;;;;5051029;28;20024;-74
2023/06/20 09:54:40;;;;;;;6.70;6.00;;;;;;;;;;5053280;28;20079;-73
2023/06/20 09:57:10;;;;;;;11.63;6.07;;;;;;;;;;5054925;28;20025;-74
2023/06/20 09:59:38;;;;;;;6.20;5.60;;;;;;;;;;5054091;28;20544;-74
2023/06/20 10:02:07;;;;;;;9.30;6.50;;;;;;;;;;5055033;28;20111;-72
2023/06/20 10:04:39;;;;;;;6.55;5.95;;;;;;;;;;5069674;28;20127;-73
2023/06/20 10:07:05;;;;;;;7.28;6.57;;;;;;;;;;5054816;28;20029;-74
2023/06/20 10:09:31;;;;;;;9.60;7.00;;;;;;;;;;5067957;28;20467;-74
2023/06/20 10:11:57;;;;;;;7.28;6.00;;;;;;;;;;5074445;28;20024;-75
2023/06/20 10:14:24;;;;;;;7.50;6.70;;;;;;;;;;5062221;28;20372;-72
2023/06/20 10:16:53;;;;;;;11.48;7.53;;;;;;;;;;5054792;28;20419;-74
2023/06/20 10:19:19;;;;;;;9.70;7.35;;;;;;;;;;5054318;28;20028;-73
2023/06/20 10:21:54;;;;;;;8.63;7.00;;;;;;;;;;5054760;28;20025;-73
2023/06/20 10:24:20;;;;;;;8.63;6.90;;;;;;;;;;5035983;28;20032;-73
2023/06/20 10:26:52;;;;;;;8.27;7.15;;;;;;;;;;5053437;28;20025;-73
2023/06/20 10:29:18;;;;;;;7.43;6.72;;;;;;;;;;5053699;28;20036;-74
2023/06/20 10:32:03;;;;;;;8.05;6.95;;;;;;;;;;5054191;28;20039;-72
2023/06/20 10:34:32;;;;;;;10.50;6.90;;;;;;;;;;5052503;28;20029;-73
2023/06/20 10:37:17;;;;;;;7.68;6.93;;;;;;;;;;5052126;28;20035;-72
2023/06/20 10:39:52;;;;;;;8.75;6.43;;;;;;;;;;5052637;28;20112;-74
2023/06/20 10:42:32;;;;;;;8.63;7.47;;;;;;;;;;5052507;28;20097;-73
2023/06/20 10:45:16;;;;;;;8.60;6.90;;;;;;;;;;5052395;28;20028;-73
2023/06/20 10:47:42;;;;;;;9.50;7.40;;;;;;;;;;5052499;28;20116;-72
2023/06/20 10:50:10;;;;;;;8.25;6.65;;;;;;;;;;5054128;28;20119;-73
2023/06/20 10:52:37;;;;;;;8.18;7.40;;;;;;;;;;5053335;28;20568;-73
2023/06/20 10:55:04;;;;;;;9.10;7.50;;;;;;;;;;5054364;28;20025;-73
2023/06/20 10:57:30;;;;;;;8.15;7.45;;;;;;;;;;5036355;28;20017;-74
2023/06/20 10:59:56;;;;;;;10.27;7.28;;;;;;;;;;5051991;28;20102;-73
2023/06/20 11:02:22;;;;;;;7.97;7.05;;;;;;;;;;5050709;28;20041;-73
2023/06/20 11:04:48;;;;;;;8.82;7.45;;;;;;;;;;5040028;28;20546;-73
2023/06/20 11:07:14;;;;;;;8.30;7.50;;;;;;;;;;5052722;28;20040;-74
2023/06/20 11:09:40;;;;;;;8.25;7.43;;;;;;;;;;5036011;28;20386;-74
2023/06/20 11:12:10;;;;;;;7.15;6.55;;;;;;;;;;5053510;28;20108;-75
2023/06/20 11:14:36;;;;;;;12.60;7.60;;;;;;;;;;5050174;28;20101;-74
2023/06/20 11:17:02;;;;;;;9.45;8.45;;;;;;;;;;5052624;28;20049;-74
2023/06/20 11:19:28;;;;;;;11.75;7.68;;;;;;;;;;5053365;28;20017;-75
2023/06/20 11:21:55;;;;;;;8.25;7.45;;;;;;;;;;5053571;28;20051;-75
2023/06/20 11:24:21;;;;;;;9.00;7.45;;;;;;;;;;5035728;28;20043;-75
2023/06/20 11:26:47;;;;;;;8.63;7.63;;;;;;;;;;5052627;28;20028;-73
2023/06/20 11:29:13;;;;;;;8.75;7.60;;;;;;;;;;5051864;28;20391;-73
2023/06/20 11:31:39;;;;;;;10.15;7.85;;;;;;;;;;5052968;28;20032;-73
2023/06/20 11:34:06;;;;;;;7.50;6.80;;;;;;;;;;5053189;28;20609;-74
2023/06/20 11:36:33;;;;;;;8.93;8.02;;;;;;;;;;5052506;28;20032;-75
2023/06/20 11:38:59;;;;;;;11.23;7.88;;;;;;;;;;5052206;28;20029;-75
2023/06/20 11:41:32;;;;;;;9.50;8.00;;;;;;;;;;5053317;28;20479;-75
2023/06/20 11:43:58;;;;;;;10.95;8.50;;;;;;;;;;5053021;28;20143;-76
2023/06/20 11:46:25;;;;;;;10.13;8.27;;;;;;;;;;5053269;28;20028;-76
2023/06/20 11:48:52;;;;;;;11.75;8.57;;;;;;;;;;5052896;28;20048;-75
2023/06/20 11:51:20;;;;;;;10.80;8.05;;;;;;;;;;5053850;28;20025;-76
2023/06/20 11:53:47;;;;;;;10.15;8.68;;;;;;;;;;5053316;28;20017;-76
2023/06/20 11:56:15;;;;;;;8.77;7.85;;;;;;;;;;5053050;28;20028;-75
2023/06/20 11:58:41;;;;;;;14.35;8.43;;;;;;;;;;5053427;28;20017;-76
2023/06/20 12:01:10;;;;;;;10.00;8.48;;;;;;;;;;5052938;28;20024;-75
2023/06/20 12:03:41;;;;;;;13.10;8.60;;;;;;;;;;5053093;28;20028;-76
2023/06/20 12:06:27;;;;;;;8.73;7.93;;;;;;;;;;5052836;28;20032;-76
2023/06/20 12:09:13;;;;;;;9.93;7.43;;;;;;;;;;5052405;28;20029;-75
2023/06/20 12:11:49;;;;;;;10.05;7.95;;;;;;;;;;5052541;28;20172;-77
2023/06/20 12:14:16;;;;;;;10.73;7.15;;;;;;;;;;5052547;28;20048;-76
2023/06/20 12:16:42;;;;;;;11.68;8.30;;;;;;;;;;5050960;28;20110;-76
2023/06/20 12:19:08;;;;;;;8.25;6.80;;;;;;;;;;5050228;28;20055;-76
2023/06/20 12:21:34;;;;;;;11.20;7.30;;;;;;;;;;5032490;28;20029;-77
2023/06/20 12:24:00;;;;;;;8.52;7.32;;;;;;;;;;5050621;28;20028;-76
2023/06/20 12:26:26;;;;;;;9.02;7.95;;;;;;;;;;5050322;28;20025;-77
2023/06/20 12:28:53;;;;;;;8.88;7.90;;;;;;;;;;5050097;28;20032;-76
2023/06/20 12:31:19;;;;;;;10.80;7.45;;;;;;;;;;5050392;28;20029;-76
2023/06/20 12:33:45;;;;;;;10.52;8.00;;;;;;;;;;5050961;28;20017;-76
2023/06/20 12:36:11;;;;;;;11.68;8.45;;;;;;;;;;5051328;28;20017;-76
2023/06/20 12:38:37;;;;;;;11.05;7.50;;;;;;;;;;5058622;28;20025;-76
2023/06/20 12:41:03;;;;;;;12.30;8.35;;;;;;;;;;5073668;28;20021;-77
2023/06/20 12:43:29;;;;;;;10.07;7.93;;;;;;;;;;5071412;28;20025;-76
2023/06/20 12:45:58;;;;;;;9.68;8.32;;;;;;;;;;5070572;28;20067;-76
2023/06/20 12:48:25;;;;;;;9.80;7.80;;;;;;;;;;5069669;28;20077;-76
2023/06/20 12:50:52;;;;;;;8.23;6.93;;;;;;;;;;5070510;28;20033;-76
2023/06/20 12:53:18;;;;;;;8.75;7.65;;;;;;;;;;5070138;28;20023;-76
2023/06/20 12:55:44;;;;;;;8.65;7.15;;;;;;;;;;5070137;28;20020;-76
2023/06/20 12:58:12;;;;;;;8.15;7.40;;;;;;;;;;5070298;28;20074;-75
2023/06/20 13:00:38;;;;;;;11.23;7.53;;;;;;;;;;5053341;28;20081;-75
2023/06/20 13:03:05;;;;;;;10.32;8.48;;;;;;;;;;5071694;28;20035;-75
2023/06/20 13:05:33;;;;;;;11.52;8.57;;;;;;;;;;5071438;28;20040;-76
2023/06/20 13:07:59;;;;;;;11.07;9.43;;;;;;;;;;5071533;28;20434;-75
2023/06/20 13:10:25;;;;;;;10.30;9.32;;;;;;;;;;5071412;28;20111;-76
2023/06/20 13:12:51;;;;;;;13.30;9.30;;;;;;;;;;5071666;28;20103;-75
2023/06/20 13:15:23;;;;;;;9.85;8.85;;;;;;;;;;5071557;28;20095;-76
2023/06/20 13:17:50;;;;;;;12.98;9.55;;;;;;;;;;5070788;28;20386;-77
2023/06/20 13:20:16;;;;;;;11.93;9.75;;;;;;;;;;5071420;28;20032;-76
2023/06/20 13:22:42;;;;;;;10.50;9.30;;;;;;;;;;5071522;28;20093;-76
2023/06/20 13:25:08;;;;;;;10.50;9.35;;;;;;;;;;5071473;28;20479;-76
2023/06/20 13:27:34;;;;;;;12.60;8.88;;;;;;;;;;5070973;28;20035;-77
2023/06/20 13:30:00;;;;;;;11.43;9.35;;;;;;;;;;5070636;28;20033;-77
2023/06/20 13:32:26;;;;;;;9.93;8.98;;;;;;;;;;5071075;28;20111;-74
2023/06/20 13:34:52;;;;;;;10.52;9.30;;;;;;;;;;5033444;28;20021;-74
2023/06/20 13:37:18;;;;;;;11.88;8.93;;;;;;;;;;5050961;28;20426;-75
2023/06/20 13:39:44;;;;;;;13.90;9.32;;;;;;;;;;5051642;28;20028;-75
2023/06/20 13:42:10;;;;;;;11.23;9.05;;;;;;;;;;5051626;28;20390;-76
2023/06/20 13:44:36;;;;;;;10.05;9.00;;;;;;;;;;5051272;28;20457;-77
2023/06/20 13:47:02;;;;;;;13.25;9.75;;;;;;;;;;5051003;28;20025;-76
2023/06/20 13:49:29;;;;;;;10.15;9.25;;;;;;;;;;5051397;28;20037;-76
2023/06/20 13:51:55;;;;;;;11.35;9.02;;;;;;;;;;5051084;28;20025;-76
2023/06/20 13:54:22;;;;;;;10.15;8.77;;;;;;;;;;5051317;28;20570;-76
2023/06/20 13:56:48;;;;;;;10.50;8.90;;;;;;;;;;5050896;28;20070;-75
2023/06/20 13:59:14;;;;;;;16.08;10.30;;;;;;;;;;5069046;22;20088;-79
2023/06/20 14:01:41;;;;;;;10.18;8.48;;;;;;;;;;5012606;28;20065;-79
2023/06/20 14:04:07;;;;;;;11.15;8.93;;;;;;;;;;4995092;28;20032;-79
2023/06/20 14:06:34;;;;;;;10.75;9.65;;;;;;;;;;5012849;28;20029;-79
2023/06/20 14:09:01;;;;;;;12.40;9.27;;;;;;;;;;5012319;28;20026;-79
2023/06/20 14:11:27;;;;;;;13.57;8.80;;;;;;;;;;5002227;28;20015;-79
2023/06/20 14:13:53;;;;;;;11.70;9.20;;;;;;;;;;5003550;28;20030;-79
2023/06/20 14:16:20;;;;;;;10.10;8.90;;;;;;;;;;4995904;28;20639;-79
2023/06/20 14:18:46;;;;;;;9.13;8.23;;;;;;;;;;5008344;28;20479;-79
2023/06/20 14:21:12;;;;;;;10.52;9.20;;;;;;;;;;4991739;28;20022;-79
2023/06/20 14:23:39;;;;;;;11.35;8.73;;;;;;;;;;4992384;28;20053;-79
2023/06/20 14:26:05;;;;;;;11.93;8.73;;;;;;;;;;4992778;28;20019;-79